Terminal Aerodrome Forecast
Issued by NWS Sterling, VA

Current Version | Previous Version | Graphics & Text | Print | Product List | Glossary On
Versions: 1 2 3 4 5 6 7 8 9 10 11 12 13 14 15 16 17
000
FTUS41 KLWX 021437 AAA
TAFMRB
TAF AMD
KMRB 021437Z 0215/0312 34007KT P6SM SCT050
     FM022300 31004KT P6SM SCT200
     FM031100 00000KT 5SM BR FEW200=

USA.gov is the U.S. government's official web portal to all federal, state and local government web resources and services.